createdAt,value
2022-12-11T00:00:25.049Z,84.40
2022-12-11T00:02:52.310Z,84.13
2022-12-11T00:05:19.430Z,84.10
2022-12-11T00:07:46.642Z,84.40
2022-12-11T00:10:13.825Z,84.26
2022-12-11T00:12:40.876Z,83.77
2022-12-11T00:15:08.963Z,83.99
2022-12-11T00:17:36.498Z,83.95
2022-12-11T00:20:04.124Z,84.00
2022-12-11T00:22:31.437Z,83.83
2022-12-11T00:24:58.513Z,84.06
2022-12-11T00:27:25.625Z,84.22
2022-12-11T00:29:52.660Z,84.20
2022-12-11T00:32:19.784Z,84.31
2022-12-11T00:34:46.881Z,84.37
2022-12-11T00:37:14.109Z,84.24
2022-12-11T00:39:41.346Z,84.21
2022-12-11T00:42:08.760Z,84.00
2022-12-11T00:44:36.200Z,84.24
2022-12-11T00:47:03.878Z,84.09
2022-12-11T00:49:30.960Z,84.19
2022-12-11T00:51:58.034Z,84.11
2022-12-11T00:54:25.142Z,84.37
2022-12-11T00:56:52.209Z,84.50
2022-12-11T00:59:19.294Z,84.28
2022-12-11T01:01:46.575Z,84.18
2022-12-11T01:04:13.807Z,84.07
2022-12-11T01:06:41.230Z,84.11
2022-12-11T01:09:26.870Z,84.44
2022-12-11T01:11:54.164Z,84.40
2022-12-11T01:14:21.245Z,84.39
2022-12-11T01:16:48.310Z,84.38
2022-12-11T01:19:15.726Z,83.92
2022-12-11T01:21:42.971Z,84.37
2022-12-11T01:24:10.136Z,83.85
2022-12-11T01:26:37.358Z,83.87
2022-12-11T01:29:04.467Z,83.60
2022-12-11T01:31:31.702Z,83.51
2022-12-11T01:33:58.776Z,83.69
2022-12-11T01:36:26.203Z,82.96
2022-12-11T01:38:54.437Z,83.39
2022-12-11T01:41:22.033Z,83.52
2022-12-11T01:44:04.621Z,83.64
2022-12-11T01:46:36.565Z,83.48
2022-12-11T01:49:06.635Z,83.57
2022-12-11T01:51:37.368Z,83.66
2022-12-11T01:54:08.413Z,84.13
2022-12-11T01:56:36.526Z,84.17
2022-12-11T01:59:07.306Z,84.02
2022-12-11T02:01:37.718Z,83.90
2022-12-11T02:04:06.996Z,83.78
2022-12-11T02:06:43.374Z,83.80
2022-12-11T02:09:14.262Z,83.53
2022-12-11T02:11:53.477Z,83.51
2022-12-11T02:14:28.133Z,83.80
2022-12-11T02:17:14.840Z,83.58
2022-12-11T02:19:50.045Z,83.66
2022-12-11T02:22:35.885Z,83.79
2022-12-11T02:25:22.497Z,83.65
2022-12-11T02:28:11.347Z,83.77
2022-12-11T02:30:39.415Z,83.40
2022-12-11T02:33:07.510Z,83.31
2022-12-11T02:35:38.326Z,83.23
2022-12-11T02:38:14.215Z,83.50
2022-12-11T02:40:42.482Z,82.98
2022-12-11T02:43:11.721Z,82.99
2022-12-11T02:45:40.782Z,82.78
2022-12-11T02:48:09.978Z,82.55
2022-12-11T02:50:45.756Z,83.03
2022-12-11T02:53:13.829Z,82.95
2022-12-11T02:55:41.877Z,83.18
2022-12-11T02:58:18.774Z,83.00
2022-12-11T03:00:46.388Z,83.27
2022-12-11T03:03:14.211Z,83.07
2022-12-11T03:05:42.747Z,82.95
2022-12-11T03:08:10.292Z,83.00
2022-12-11T03:10:37.418Z,83.61
2022-12-11T03:13:04.715Z,83.52
2022-12-11T03:15:53.387Z,83.23
2022-12-11T03:18:30.637Z,83.49
2022-12-11T03:21:13.258Z,83.32
2022-12-11T03:23:46.287Z,83.81
2022-12-11T03:26:14.929Z,83.72
2022-12-11T03:28:55.017Z,83.56
2022-12-11T03:31:50.483Z,83.98
2022-12-11T03:34:25.939Z,83.60
2022-12-11T03:36:54.052Z,83.66
2022-12-11T03:39:33.217Z,83.44
2022-12-11T03:42:03.625Z,83.51
2022-12-11T03:44:32.458Z,83.65
2022-12-11T03:47:00.482Z,83.18
2022-12-11T03:49:29.904Z,83.33
2022-12-11T03:51:58.166Z,82.97
2022-12-11T03:54:26.103Z,83.05
2022-12-11T03:56:56.429Z,83.23
2022-12-11T03:59:23.676Z,83.41
2022-12-11T04:01:51.255Z,83.50
2022-12-11T04:04:18.415Z,83.58
2022-12-11T04:06:45.560Z,83.62
2022-12-11T04:09:12.865Z,83.34
2022-12-11T04:11:39.971Z,83.57
2022-12-11T04:14:30.301Z,83.48
2022-12-11T04:16:58.839Z,83.07
2022-12-11T04:19:44.779Z,83.43
2022-12-11T04:22:32.205Z,83.32
2022-12-11T04:25:00.101Z,83.52
2022-12-11T04:27:45.872Z,83.32
2022-12-11T04:30:24.660Z,83.30
2022-12-11T04:32:54.388Z,83.62
2022-12-11T04:35:22.166Z,83.37
2022-12-11T04:37:49.566Z,82.83
2022-12-11T04:40:19.010Z,83.36
2022-12-11T04:42:46.134Z,83.46
2022-12-11T04:45:13.507Z,83.21
2022-12-11T04:47:41.693Z,83.68
2022-12-11T04:50:10.948Z,83.35
2022-12-11T04:52:38.010Z,83.35
2022-12-11T04:55:06.401Z,83.92
2022-12-11T04:57:33.495Z,84.02
2022-12-11T05:00:00.620Z,84.23
2022-12-11T05:02:27.875Z,84.07
2022-12-11T05:04:55.019Z,83.83
2022-12-11T05:07:22.041Z,84.20
2022-12-11T05:09:49.087Z,83.99
2022-12-11T05:12:16.139Z,83.88
2022-12-11T05:14:43.512Z,83.74
2022-12-11T05:17:10.577Z,83.96
2022-12-11T05:19:37.661Z,83.48
2022-12-11T05:22:04.741Z,83.33
2022-12-11T05:24:31.847Z,83.59
2022-12-11T05:26:59.034Z,83.71
2022-12-11T05:29:26.118Z,83.56
2022-12-11T05:31:53.199Z,83.65
2022-12-11T05:34:20.261Z,83.66
2022-12-11T05:36:47.347Z,83.72
2022-12-11T05:39:14.587Z,83.10
2022-12-11T05:41:41.829Z,83.43
2022-12-11T05:44:12.634Z,83.55
2022-12-11T05:46:40.515Z,83.50
2022-12-11T05:49:08.036Z,82.89
2022-12-11T05:51:35.126Z,83.04
2022-12-11T05:54:02.773Z,82.86
2022-12-11T05:56:32.490Z,82.97
2022-12-11T05:59:00.775Z,82.73
2022-12-11T06:01:29.623Z,82.64
2022-12-11T06:03:57.317Z,82.59
2022-12-11T06:06:25.157Z,82.28
2022-12-11T06:08:53.822Z,82.24
2022-12-11T06:11:24.201Z,82.33
2022-12-11T06:13:52.413Z,82.09
2022-12-11T06:16:20.199Z,81.82
2022-12-11T06:18:47.902Z,82.31
2022-12-11T06:21:23.751Z,82.25
2022-12-11T06:23:53.424Z,82.44
2022-12-11T06:26:21.010Z,82.35
2022-12-11T06:28:48.727Z,82.29
2022-12-11T06:31:16.406Z,82.44
2022-12-11T06:33:43.558Z,81.63
2022-12-11T06:36:13.638Z,82.03
2022-12-11T06:38:40.743Z,82.01
2022-12-11T06:41:08.518Z,82.33
2022-12-11T06:43:36.802Z,81.74
2022-12-11T06:46:15.105Z,81.97
2022-12-11T06:48:42.883Z,82.29
2022-12-11T06:51:15.412Z,82.21
2022-12-11T06:53:42.631Z,82.21
2022-12-11T06:56:14.559Z,81.78
2022-12-11T06:58:42.671Z,81.47
2022-12-11T07:01:21.292Z,81.53
2022-12-11T07:03:48.989Z,81.59
2022-12-11T07:06:16.596Z,81.52
2022-12-11T07:08:43.680Z,81.47
2022-12-11T07:11:12.890Z,81.05
2022-12-11T07:13:41.945Z,81.29
2022-12-11T07:16:11.267Z,81.21
2022-12-11T07:18:42.734Z,81.50
2022-12-11T07:21:12.957Z,81.53
2022-12-11T07:23:40.643Z,81.83
2022-12-11T07:26:14.022Z,82.18
2022-12-11T07:28:41.320Z,81.71
2022-12-11T07:31:12.989Z,81.22
2022-12-11T07:33:40.807Z,81.16
2022-12-11T07:36:09.478Z,81.19
2022-12-11T07:38:36.930Z,81.32
2022-12-11T07:41:15.580Z,81.29
2022-12-11T07:43:43.274Z,80.99
2022-12-11T07:46:16.115Z,81.03
2022-12-11T07:48:45.355Z,80.90
2022-12-11T07:51:18.271Z,80.53
2022-12-11T07:53:47.188Z,80.62
2022-12-11T07:56:15.591Z,80.87
2022-12-11T07:58:42.786Z,80.88
2022-12-11T08:01:20.057Z,80.75
2022-12-11T08:03:47.689Z,81.36
2022-12-11T08:06:15.311Z,81.03
2022-12-11T08:08:42.510Z,81.18
2022-12-11T08:11:12.389Z,80.49
2022-12-11T08:13:39.965Z,80.43
2022-12-11T08:16:09.020Z,80.51
2022-12-11T08:18:37.079Z,80.41
2022-12-11T08:21:10.165Z,80.42
2022-12-11T08:23:37.385Z,79.85
2022-12-11T08:26:06.450Z,79.91
2022-12-11T08:28:33.608Z,79.70
2022-12-11T08:31:01.256Z,79.79
2022-12-11T08:33:28.362Z,79.92
2022-12-11T08:35:55.392Z,79.84
2022-12-11T08:38:25.626Z,79.67
2022-12-11T08:40:53.044Z,80.09
2022-12-11T08:43:20.230Z,79.40
2022-12-11T08:45:47.339Z,79.32
2022-12-11T08:48:14.503Z,79.07
2022-12-11T08:50:41.799Z,79.22
2022-12-11T08:53:08.847Z,79.38
2022-12-11T08:55:35.899Z,79.25
2022-12-11T08:58:03.257Z,79.51
2022-12-11T09:00:30.285Z,79.38
2022-12-11T09:02:57.353Z,79.11
2022-12-11T09:05:24.430Z,79.22
2022-12-11T09:07:51.541Z,78.62
2022-12-11T09:10:18.859Z,78.40
2022-12-11T09:12:45.940Z,78.12
2022-12-11T09:15:13.374Z,78.18
2022-12-11T09:17:40.670Z,78.85
2022-12-11T09:20:08.258Z,78.86
2022-12-11T09:22:35.333Z,78.85
2022-12-11T09:25:02.504Z,78.82
2022-12-11T09:27:29.565Z,78.78
2022-12-11T09:29:56.664Z,78.55
2022-12-11T09:32:23.737Z,77.91
2022-12-11T09:34:51.911Z,78.35
2022-12-11T09:37:19.031Z,77.88
2022-12-11T09:39:46.079Z,77.93
2022-12-11T09:42:32.836Z,77.06
2022-12-11T09:45:02.418Z,77.59
2022-12-11T09:47:41.295Z,77.49
2022-12-11T09:50:11.433Z,77.53
2022-12-11T09:56:00.905Z,77.27
2022-12-11T09:58:37.295Z,77.33
2022-12-11T10:01:29.758Z,77.04
2022-12-11T10:04:21.204Z,77.51
2022-12-11T10:06:57.234Z,77.45
2022-12-11T10:09:50.378Z,77.61
2022-12-11T10:12:38.324Z,77.75
2022-12-11T10:15:33.731Z,77.19
2022-12-11T10:18:04.872Z,76.49
2022-12-11T10:20:39.516Z,77.01
2022-12-11T10:23:08.850Z,76.21
2022-12-11T10:25:40.636Z,76.99
2022-12-11T10:28:14.235Z,77.49
2022-12-11T10:31:08.729Z,76.95
2022-12-11T10:33:54.976Z,76.64
2022-12-11T10:36:31.454Z,75.63
2022-12-11T10:38:59.219Z,76.54
2022-12-11T10:41:43.570Z,76.20
2022-12-11T10:44:18.182Z,76.95
2022-12-11T10:46:47.139Z,76.41
2022-12-11T10:49:25.140Z,76.73
2022-12-11T10:51:53.170Z,76.26
2022-12-11T10:54:29.234Z,76.74
2022-12-11T10:56:56.495Z,76.59
2022-12-11T10:59:37.317Z,76.69
2022-12-11T11:02:07.595Z,77.07
2022-12-11T11:04:39.153Z,77.28
2022-12-11T11:07:13.828Z,77.38
2022-12-11T11:09:41.408Z,76.92
2022-12-11T11:12:27.171Z,76.88
2022-12-11T11:15:06.052Z,76.48
2022-12-11T11:17:35.394Z,76.84
2022-12-11T11:20:07.456Z,77.08
2022-12-11T11:22:39.289Z,76.44
2022-12-11T11:25:06.723Z,77.12
2022-12-11T11:27:47.755Z,77.05
2022-12-11T11:30:25.096Z,77.94
2022-12-11T11:32:55.575Z,78.44
2022-12-11T11:35:27.387Z,78.35
2022-12-11T11:38:18.635Z,78.02
2022-12-11T11:40:51.364Z,78.47
2022-12-11T11:43:38.980Z,78.53
2022-12-11T11:46:07.914Z,78.54
2022-12-11T11:48:37.827Z,78.92
2022-12-11T11:51:14.696Z,78.61
2022-12-11T11:53:44.850Z,78.86
2022-12-11T11:56:23.824Z,79.02
2022-12-11T11:59:25.117Z,78.88
2022-12-11T12:01:55.127Z,78.45
2022-12-11T12:04:22.695Z,78.68
2022-12-11T12:07:04.952Z,78.70
2022-12-11T12:09:51.633Z,78.30
2022-12-11T12:12:45.024Z,78.74
2022-12-11T12:15:21.787Z,78.99
2022-12-11T12:17:55.849Z,78.60
2022-12-11T12:20:48.868Z,77.96
2022-12-11T12:23:36.625Z,77.81
2022-12-11T12:26:12.306Z,77.77
2022-12-11T12:28:49.110Z,77.70
2022-12-11T12:31:25.258Z,77.85
2022-12-11T12:34:24.354Z,78.24
2022-12-11T12:36:56.299Z,78.07
2022-12-11T12:39:47.861Z,78.87
2022-12-11T12:42:24.185Z,78.49
2022-12-11T12:45:13.003Z,78.46
2022-12-11T12:47:42.289Z,78.03
2022-12-11T12:50:13.750Z,77.88
2022-12-11T12:52:41.352Z,77.36
2022-12-11T12:55:29.025Z,77.51
2022-12-11T12:58:00.272Z,77.40
2022-12-11T13:00:39.182Z,77.40
2022-12-11T13:03:17.515Z,77.00
2022-12-11T13:05:54.648Z,76.83
2022-12-11T13:08:26.931Z,76.62
2022-12-11T13:11:05.527Z,77.10
2022-12-11T13:13:41.770Z,77.65
2022-12-11T13:16:36.383Z,77.29
2022-12-11T13:19:03.989Z,77.65
2022-12-11T13:21:33.831Z,77.69
2022-12-11T13:24:13.165Z,77.69
2022-12-11T13:26:40.382Z,77.66
2022-12-11T13:29:31.599Z,77.83
2022-12-11T13:32:01.971Z,78.11
2022-12-11T13:34:33.335Z,77.88
2022-12-11T13:39:48.319Z,77.75
2022-12-11T13:42:44.777Z,77.20
2022-12-11T13:45:28.478Z,77.49
2022-12-11T13:47:57.286Z,77.75
2022-12-11T13:50:28.543Z,77.52
2022-12-11T13:52:57.659Z,77.46
2022-12-11T13:55:27.496Z,77.34
2022-12-11T13:57:55.166Z,77.48
2022-12-11T14:00:28.456Z,78.01
2022-12-11T14:02:57.698Z,78.32
2022-12-11T14:05:24.960Z,78.17
2022-12-11T14:07:55.258Z,77.65
2022-12-11T14:10:30.756Z,78.41
2022-12-11T14:13:02.763Z,77.97
2022-12-11T14:15:30.667Z,78.57
2022-12-11T14:17:58.424Z,78.44
2022-12-11T14:20:27.968Z,78.46
2022-12-11T14:23:14.017Z,78.72
2022-12-11T14:25:41.122Z,78.86
2022-12-11T14:28:16.895Z,79.27
2022-12-11T14:30:50.323Z,79.43
2022-12-11T14:33:19.510Z,79.40
2022-12-11T14:35:47.465Z,79.29
2022-12-11T14:38:20.466Z,79.58
2022-12-11T14:40:52.009Z,79.55
2022-12-11T14:43:35.438Z,80.11
2022-12-11T14:46:06.752Z,79.99
2022-12-11T14:48:42.168Z,80.29
2022-12-11T14:51:14.985Z,79.67
2022-12-11T14:53:45.379Z,79.61
2022-12-11T14:56:21.840Z,80.05
2022-12-11T14:58:58.527Z,79.79
2022-12-11T15:01:31.631Z,79.73
2022-12-11T15:04:27.596Z,79.54
2022-12-11T15:06:55.792Z,79.60
2022-12-11T15:09:27.952Z,79.04
2022-12-11T15:11:58.455Z,78.84
2022-12-11T15:14:25.994Z,78.64
2022-12-11T15:16:56.435Z,78.90
2022-12-11T15:19:30.762Z,78.56
2022-12-11T15:22:05.712Z,78.41
2022-12-11T15:24:41.748Z,78.52
2022-12-11T15:27:26.275Z,78.89
2022-12-11T15:29:53.479Z,79.00
2022-12-11T15:32:21.762Z,78.52
2022-12-11T15:34:51.977Z,78.46
2022-12-11T15:37:30.015Z,78.48
2022-12-11T15:39:59.175Z,78.71
2022-12-11T15:42:30.783Z,78.45
2022-12-11T15:44:58.274Z,78.43
2022-12-11T15:47:27.451Z,78.12
2022-12-11T15:49:59.919Z,78.26
2022-12-11T15:52:26.994Z,78.46
2022-12-11T15:54:54.351Z,78.77
2022-12-11T15:57:22.932Z,78.70
2022-12-11T15:59:51.529Z,78.64
2022-12-11T16:02:18.672Z,78.80
2022-12-11T16:04:45.776Z,78.62
2022-12-11T16:07:16.700Z,78.27
2022-12-11T16:09:44.915Z,77.86
2022-12-11T16:12:13.697Z,78.05
2022-12-11T16:14:41.659Z,77.79
2022-12-11T16:17:09.859Z,77.84
2022-12-11T16:19:37.227Z,77.33
2022-12-11T16:22:05.478Z,77.59
2022-12-11T16:24:33.248Z,77.87
2022-12-11T16:27:00.373Z,78.24
2022-12-11T16:29:27.708Z,77.47
2022-12-11T16:31:55.251Z,77.42
2022-12-11T16:34:26.350Z,76.99
2022-12-11T16:36:53.680Z,77.48
2022-12-11T16:39:20.721Z,77.54
2022-12-11T16:41:47.820Z,77.44
2022-12-11T16:44:19.547Z,77.32
2022-12-11T16:46:46.895Z,77.43
2022-12-11T16:49:14.501Z,77.23
2022-12-11T16:51:41.934Z,77.06
2022-12-11T16:54:10.369Z,77.42
2022-12-11T16:56:37.994Z,77.02
2022-12-11T16:59:05.576Z,77.17
2022-12-11T17:01:33.122Z,77.48
2022-12-11T17:04:00.442Z,76.87
2022-12-11T17:06:27.609Z,76.78
2022-12-11T17:08:54.917Z,77.21
2022-12-11T17:11:23.253Z,76.75
2022-12-11T17:13:55.181Z,77.02
2022-12-11T17:16:24.797Z,76.76
2022-12-11T17:18:52.753Z,76.53
2022-12-11T17:21:20.876Z,77.02
2022-12-11T17:23:48.518Z,77.47
2022-12-11T17:26:16.466Z,77.56
2022-12-11T17:28:43.783Z,77.42
2022-12-11T17:31:16.164Z,77.29
2022-12-11T17:33:44.692Z,77.72
2022-12-11T17:36:14.639Z,77.87
2022-12-11T17:38:41.886Z,77.84
2022-12-11T17:41:12.157Z,78.13
2022-12-11T17:43:41.815Z,78.24
2022-12-11T17:46:11.628Z,78.30
2022-12-11T17:48:39.382Z,78.20
2022-12-11T17:51:09.472Z,78.08
2022-12-11T17:53:36.796Z,78.32
2022-12-11T17:56:05.927Z,78.05
2022-12-11T17:58:33.953Z,78.23
2022-12-11T18:01:01.293Z,78.53
2022-12-11T18:03:28.491Z,78.33
2022-12-11T18:05:56.809Z,78.31
2022-12-11T18:08:26.297Z,78.20
2022-12-11T18:10:54.374Z,78.40
2022-12-11T18:13:22.222Z,78.51
2022-12-11T18:16:14.078Z,78.86
2022-12-11T18:18:41.299Z,78.86
2022-12-11T18:21:12.600Z,79.02
2022-12-11T18:23:39.686Z,78.81
2022-12-11T18:26:06.774Z,78.82
2022-12-11T18:28:34.084Z,79.02
2022-12-11T18:31:03.069Z,78.82
2022-12-11T18:33:30.843Z,78.82
2022-12-11T18:35:57.940Z,78.31
2022-12-11T18:38:25.084Z,78.78
2022-12-11T18:40:52.157Z,78.84
2022-12-11T18:43:19.339Z,79.06
2022-12-11T18:45:46.638Z,78.91
2022-12-11T18:48:14.560Z,78.68
2022-12-11T18:50:45.391Z,78.74
2022-12-11T18:53:12.813Z,79.01
2022-12-11T18:55:44.407Z,79.21
2022-12-11T18:58:13.079Z,79.35
2022-12-11T19:00:41.481Z,79.50
2022-12-11T19:03:09.887Z,79.56
2022-12-11T19:05:37.781Z,79.37
2022-12-11T19:08:05.032Z,79.43
2022-12-11T19:10:32.082Z,79.43
2022-12-11T19:12:59.206Z,79.33
2022-12-11T19:15:27.515Z,79.03
2022-12-11T19:17:54.577Z,79.57
2022-12-11T19:23:08.833Z,79.60
2022-12-11T19:25:45.281Z,79.48
2022-12-11T19:28:12.379Z,79.50
2022-12-11T19:30:46.584Z,79.45
2022-12-11T19:33:13.785Z,79.34
2022-12-11T19:35:40.867Z,79.48
2022-12-11T19:38:08.428Z,79.45
2022-12-11T19:40:43.188Z,79.63
2022-12-11T19:43:10.806Z,79.65
2022-12-11T19:45:38.126Z,79.48
2022-12-11T19:48:05.970Z,79.62
2022-12-11T19:50:35.445Z,79.64
2022-12-11T19:53:02.768Z,79.84
2022-12-11T19:55:29.888Z,79.70
2022-12-11T19:57:56.915Z,80.14
2022-12-11T20:00:24.658Z,80.11
2022-12-11T20:02:52.069Z,79.95
2022-12-11T20:05:19.206Z,80.09
2022-12-11T20:07:46.379Z,80.02
2022-12-11T20:10:13.477Z,80.05
2022-12-11T20:12:40.684Z,80.18
2022-12-11T20:15:08.161Z,80.42
2022-12-11T20:17:36.666Z,80.60
2022-12-11T20:20:04.007Z,80.06
2022-12-11T20:22:31.081Z,80.34
2022-12-11T20:24:58.638Z,80.35
2022-12-11T20:27:26.250Z,79.95
2022-12-11T20:29:53.295Z,79.66
2022-12-11T20:32:20.515Z,80.14
2022-12-11T20:34:47.720Z,80.68
2022-12-11T20:37:14.759Z,80.69
2022-12-11T20:39:41.787Z,80.57
2022-12-11T20:42:09.738Z,80.47
2022-12-11T20:44:37.000Z,80.71
2022-12-11T20:47:04.183Z,80.75
2022-12-11T20:49:31.360Z,80.62
2022-12-11T20:51:59.724Z,80.54
2022-12-11T20:54:27.022Z,80.11
2022-12-11T20:56:54.188Z,80.06
2022-12-11T20:59:21.279Z,80.10
2022-12-11T21:01:49.312Z,80.47
2022-12-11T21:04:16.423Z,80.14
2022-12-11T21:06:43.807Z,80.17
2022-12-11T21:09:17.749Z,80.21
2022-12-11T21:11:44.938Z,80.24
2022-12-11T21:14:12.120Z,80.23
2022-12-11T21:16:39.371Z,80.55
2022-12-11T21:19:07.056Z,80.22
2022-12-11T21:21:36.793Z,80.27
2022-12-11T21:24:04.039Z,80.34
2022-12-11T21:26:31.102Z,80.38
2022-12-11T21:28:58.261Z,80.13
2022-12-11T21:31:25.682Z,80.52
2022-12-11T21:33:53.595Z,80.79
2022-12-11T21:36:20.721Z,80.72
2022-12-11T21:38:47.759Z,80.81
2022-12-11T21:41:17.813Z,80.23
2022-12-11T21:44:56.566Z,80.43
2022-12-11T21:46:33.374Z,80.55
2022-12-11T21:49:00.469Z,80.36
2022-12-11T21:51:35.928Z,80.25
2022-12-11T21:54:05.700Z,80.68
2022-12-11T21:56:33.238Z,80.27
2022-12-11T21:59:01.515Z,80.15
2022-12-11T22:01:33.496Z,80.68
2022-12-11T22:04:01.442Z,80.73
2022-12-11T22:06:28.586Z,80.51
2022-12-11T22:08:55.803Z,80.22
2022-12-11T22:11:28.392Z,80.51
2022-12-11T22:13:55.717Z,80.34
2022-12-11T22:16:23.016Z,80.39
2022-12-11T22:18:50.134Z,80.40
2022-12-11T22:21:17.862Z,80.68
2022-12-11T22:23:45.051Z,80.48
2022-12-11T22:26:17.660Z,80.48
2022-12-11T22:28:44.752Z,80.45
2022-12-11T22:31:14.274Z,80.57
2022-12-11T22:33:43.490Z,80.58
2022-12-11T22:36:11.343Z,80.69
2022-12-11T22:38:39.276Z,80.36
2022-12-11T22:41:18.974Z,80.41
2022-12-11T22:43:49.224Z,80.35
2022-12-11T22:46:18.225Z,80.58
2022-12-11T22:48:45.463Z,80.71
2022-12-11T22:51:12.848Z,80.53
2022-12-11T22:53:39.954Z,80.99
2022-12-11T22:56:09.015Z,80.56
2022-12-11T22:58:36.133Z,80.88
2022-12-11T23:01:07.589Z,80.81
2022-12-11T23:03:34.662Z,80.76
2022-12-11T23:06:05.529Z,80.45
2022-12-11T23:08:33.157Z,80.46
2022-12-11T23:11:00.338Z,80.54
2022-12-11T23:13:27.446Z,80.05
2022-12-11T23:15:54.513Z,80.30
2022-12-11T23:18:21.602Z,80.27
2022-12-11T23:20:49.300Z,80.24
2022-12-11T23:23:16.356Z,80.15
2022-12-11T23:25:43.638Z,80.38
2022-12-11T23:28:10.705Z,80.29
2022-12-11T23:30:38.007Z,80.17
2022-12-11T23:33:06.556Z,80.42
2022-12-11T23:35:33.821Z,80.41
2022-12-11T23:38:01.113Z,80.61
2022-12-11T23:40:28.288Z,80.24
2022-12-11T23:42:55.336Z,80.23
2022-12-11T23:45:22.386Z,80.46
2022-12-11T23:47:49.527Z,80.31
2022-12-11T23:50:16.584Z,80.28
2022-12-11T23:52:43.671Z,80.34
2022-12-11T23:55:11.268Z,80.19
2022-12-11T23:57:38.597Z,80.69
